Fulda, Minnesota
Current Conditions -  °F | °C
As of 6:56 AM on Wednesday 26 Nov 2014 (Local Time) from KDVP Reporting Station
Light Snow Light Snow  
Wind Chill:   Ceiling: 600
Heat Index: 22°   Visibility: 3mi
Dew Point: 22°   Wind: 18mph
Humidity: 99%   Direction: 10°N
Pressure: 29.99"   Gusts: NA
Location:  43.87°N, 95.6°W
Report Text: KDVP 261256Z AUTO 01016KT 3SM -SN OVC006 M05/M05 A2999 RMK AO2 T10541055
Loading
Personal Weather Stations






























Interactive Weather Map New forecast layout! Learn more

10-Day Weather Forecast

Advertisements
Track Severe Weather on mobile